sensor_id;sensor_type;location;lat;lon;timestamp;pressure;altitude;pressure_sealevel;temperature;humidity
59417;BME280;45222;52.458;20.914;2023-03-14T00:00:47;99019.98;;;9.05;69.04
59417;BME280;45222;52.458;20.914;2023-03-14T00:04:39;99009.53;;;8.97;69.01
59417;BME280;45222;52.458;20.914;2023-03-14T00:08:24;99007.53;;;8.89;69.11
59417;BME280;45222;52.458;20.914;2023-03-14T00:12:10;99005.94;;;8.81;68.90
59417;BME280;45222;52.458;20.914;2023-03-14T00:15:55;99000.04;;;8.79;69.04
59417;BME280;45222;52.458;20.914;2023-03-14T00:19:46;98987.92;;;8.80;69.49
59417;BME280;45222;52.458;20.914;2023-03-14T00:23:33;98981.09;;;8.76;69.41
59417;BME280;45222;52.458;20.914;2023-03-14T00:27:18;98975.98;;;8.72;69.09
59417;BME280;45222;52.458;20.914;2023-03-14T00:31:05;98984.73;;;8.68;69.11
59417;BME280;45222;52.458;20.914;2023-03-14T00:34:51;98993.33;;;8.64;68.64
59417;BME280;45222;52.458;20.914;2023-03-14T00:38:37;98983.14;;;8.63;68.61
59417;BME280;45222;52.458;20.914;2023-03-14T00:42:22;98983.84;;;8.60;68.43
59417;BME280;45222;52.458;20.914;2023-03-14T00:46:08;98973.52;;;8.55;68.52
59417;BME280;45222;52.458;20.914;2023-03-14T00:49:54;98960.98;;;8.51;68.47
59417;BME280;45222;52.458;20.914;2023-03-14T00:53:39;98957.33;;;8.47;68.28
59417;BME280;45222;52.458;20.914;2023-03-14T00:57:25;98952.52;;;8.50;68.54
59417;BME280;45222;52.458;20.914;2023-03-14T01:01:12;98956.20;;;8.51;68.67
59417;BME280;45222;52.458;20.914;2023-03-14T01:04:58;98958.33;;;8.51;68.44
59417;BME280;45222;52.458;20.914;2023-03-14T01:08:43;98965.52;;;8.52;68.03
59417;BME280;45222;52.458;20.914;2023-03-14T01:12:28;98964.33;;;8.52;67.94
59417;BME280;45222;52.458;20.914;2023-03-14T01:16:15;98965.09;;;8.50;67.65
59417;BME280;45222;52.458;20.914;2023-03-14T01:20:00;98960.40;;;8.49;67.65
59417;BME280;45222;52.458;20.914;2023-03-14T01:23:47;98951.44;;;8.45;67.53
59417;BME280;45222;52.458;20.914;2023-03-14T01:27:33;98935.16;;;8.39;67.73
59417;BME280;45222;52.458;20.914;2023-03-14T01:31:19;98934.85;;;8.38;67.80
59417;BME280;45222;52.458;20.914;2023-03-14T01:35:05;98937.27;;;8.39;68.06
59417;BME280;45222;52.458;20.914;2023-03-14T01:38:50;98930.40;;;8.38;67.83
59417;BME280;45222;52.458;20.914;2023-03-14T01:42:35;98928.35;;;8.37;67.75
59417;BME280;45222;52.458;20.914;2023-03-14T01:46:26;98926.36;;;8.32;67.75
59417;BME280;45222;52.458;20.914;2023-03-14T01:50:13;98933.37;;;8.28;67.71
59417;BME280;45222;52.458;20.914;2023-03-14T01:54:04;98925.94;;;8.25;67.68
59417;BME280;45222;52.458;20.914;2023-03-14T01:57:55;98927.79;;;8.21;67.84
59417;BME280;45222;52.458;20.914;2023-03-14T02:01:45;98924.73;;;8.16;67.76
59417;BME280;45222;52.458;20.914;2023-03-14T02:05:51;98910.76;;;8.12;67.94
59417;BME280;45222;52.458;20.914;2023-03-14T02:09:40;98906.67;;;8.07;68.06
59417;BME280;45222;52.458;20.914;2023-03-14T02:13:26;98899.59;;;8.04;68.29
59417;BME280;45222;52.458;20.914;2023-03-14T02:17:12;98891.77;;;8.02;68.56
59417;BME280;45222;52.458;20.914;2023-03-14T02:21:01;98881.70;;;7.98;68.59
59417;BME280;45222;52.458;20.914;2023-03-14T02:24:57;98880.30;;;7.92;68.47
59417;BME280;45222;52.458;20.914;2023-03-14T02:28:46;98887.17;;;7.84;68.33
59417;BME280;45222;52.458;20.914;2023-03-14T02:32:33;98887.52;;;7.78;68.17
59417;BME280;45222;52.458;20.914;2023-03-14T02:36:20;98883.51;;;7.71;68.28
59417;BME280;45222;52.458;20.914;2023-03-14T02:40:08;98882.14;;;7.65;68.32
59417;BME280;45222;52.458;20.914;2023-03-14T02:43:54;98874.73;;;7.58;68.42
59417;BME280;45222;52.458;20.914;2023-03-14T02:47:43;98874.87;;;7.53;68.44
59417;BME280;45222;52.458;20.914;2023-03-14T02:51:29;98865.48;;;7.50;68.95
59417;BME280;45222;52.458;20.914;2023-03-14T02:55:14;98869.48;;;7.48;69.16
59417;BME280;45222;52.458;20.914;2023-03-14T02:58:59;98883.63;;;7.49;69.11
59417;BME280;45222;52.458;20.914;2023-03-14T03:02:47;98888.00;;;7.46;68.86
59417;BME280;45222;52.458;20.914;2023-03-14T03:06:32;98877.79;;;7.43;68.78
59417;BME280;45222;52.458;20.914;2023-03-14T03:10:18;98870.16;;;7.34;68.82
59417;BME280;45222;52.458;20.914;2023-03-14T03:14:03;98869.16;;;7.24;68.78
59417;BME280;45222;52.458;20.914;2023-03-14T03:17:48;98868.09;;;7.15;68.98
59417;BME280;45222;52.458;20.914;2023-03-14T03:21:33;98860.77;;;7.04;69.14
59417;BME280;45222;52.458;20.914;2023-03-14T03:25:19;98858.98;;;6.92;69.37
59417;BME280;45222;52.458;20.914;2023-03-14T03:29:04;98856.68;;;6.80;69.51
59417;BME280;45222;52.458;20.914;2023-03-14T03:32:50;98862.66;;;6.71;70.08
59417;BME280;45222;52.458;20.914;2023-03-14T03:36:35;98858.77;;;6.65;70.73
59417;BME280;45222;52.458;20.914;2023-03-14T03:40:20;98851.45;;;6.57;70.76
59417;BME280;45222;52.458;20.914;2023-03-14T03:44:05;98837.01;;;6.47;70.84
59417;BME280;45222;52.458;20.914;2023-03-14T03:47:51;98823.96;;;6.36;70.85
59417;BME280;45222;52.458;20.914;2023-03-14T03:51:36;98819.45;;;6.26;70.99
59417;BME280;45222;52.458;20.914;2023-03-14T03:55:21;98832.19;;;6.15;70.98
59417;BME280;45222;52.458;20.914;2023-03-14T03:59:06;98838.45;;;6.14;71.60
59417;BME280;45222;52.458;20.914;2023-03-14T04:02:52;98838.30;;;6.13;71.98
59417;BME280;45222;52.458;20.914;2023-03-14T04:06:38;98837.36;;;6.14;71.81
59417;BME280;45222;52.458;20.914;2023-03-14T04:10:24;98844.02;;;6.15;71.74
59417;BME280;45222;52.458;20.914;2023-03-14T04:14:11;98849.89;;;6.15;71.45
59417;BME280;45222;52.458;20.914;2023-03-14T04:17:58;98844.20;;;6.12;71.38
59417;BME280;45222;52.458;20.914;2023-03-14T04:21:43;98840.94;;;6.07;71.69
59417;BME280;45222;52.458;20.914;2023-03-14T04:25:31;98838.06;;;6.01;71.56
59417;BME280;45222;52.458;20.914;2023-03-14T04:29:16;98825.06;;;5.99;71.96
59417;BME280;45222;52.458;20.914;2023-03-14T04:33:02;98824.81;;;6.01;72.19
59417;BME280;45222;52.458;20.914;2023-03-14T04:36:47;98818.85;;;6.04;72.01
59417;BME280;45222;52.458;20.914;2023-03-14T04:40:32;98822.00;;;6.08;71.86
59417;BME280;45222;52.458;20.914;2023-03-14T04:44:17;98820.14;;;6.07;71.76
59417;BME280;45222;52.458;20.914;2023-03-14T04:48:04;98819.95;;;6.03;71.54
59417;BME280;45222;52.458;20.914;2023-03-14T04:51:49;98814.89;;;6.02;71.70
59417;BME280;45222;52.458;20.914;2023-03-14T04:55:35;98809.02;;;6.07;71.22
59417;BME280;45222;52.458;20.914;2023-03-14T04:59:20;98808.09;;;6.14;71.63
59417;BME280;45222;52.458;20.914;2023-03-14T05:03:06;98798.48;;;6.22;71.93
59417;BME280;45222;52.458;20.914;2023-03-14T05:06:51;98788.09;;;6.31;71.70
59417;BME280;45222;52.458;20.914;2023-03-14T05:10:36;98773.91;;;6.38;71.61
59417;BME280;45222;52.458;20.914;2023-03-14T05:14:22;98777.08;;;6.44;71.10
59417;BME280;45222;52.458;20.914;2023-03-14T05:18:07;98775.95;;;6.49;71.00
59417;BME280;45222;52.458;20.914;2023-03-14T05:21:52;98780.70;;;6.53;70.58
59417;BME280;45222;52.458;20.914;2023-03-14T05:25:38;98763.94;;;6.55;70.55
59417;BME280;45222;52.458;20.914;2023-03-14T05:29:23;98755.53;;;6.57;70.38
59417;BME280;45222;52.458;20.914;2023-03-14T05:33:08;98745.80;;;6.60;70.50
59417;BME280;45222;52.458;20.914;2023-03-14T05:36:53;98739.77;;;6.67;70.65
59417;BME280;45222;52.458;20.914;2023-03-14T05:40:40;98736.94;;;6.76;70.82
59417;BME280;45222;52.458;20.914;2023-03-14T05:44:25;98729.61;;;6.83;70.82
59417;BME280;45222;52.458;20.914;2023-03-14T05:48:11;98720.85;;;6.88;70.46
59417;BME280;45222;52.458;20.914;2023-03-14T05:51:56;98710.67;;;6.93;69.92
59417;BME280;45222;52.458;20.914;2023-03-14T05:55:42;98713.05;;;6.97;69.71
59417;BME280;45222;52.458;20.914;2023-03-14T05:59:27;98717.95;;;7.01;69.60
59417;BME280;45222;52.458;20.914;2023-03-14T06:03:13;98717.46;;;7.06;69.06
59417;BME280;45222;52.458;20.914;2023-03-14T06:06:58;98702.20;;;7.13;69.14
59417;BME280;45222;52.458;20.914;2023-03-14T06:10:43;98699.11;;;7.20;69.08
59417;BME280;45222;52.458;20.914;2023-03-14T06:14:29;98688.13;;;7.29;68.82
59417;BME280;45222;52.458;20.914;2023-03-14T06:18:14;98697.95;;;7.45;69.07
59417;BME280;45222;52.458;20.914;2023-03-14T06:21:59;98679.24;;;7.61;69.24
59417;BME280;45222;52.458;20.914;2023-03-14T06:25:45;98690.23;;;7.78;68.46
59417;BME280;45222;52.458;20.914;2023-03-14T06:29:30;98710.61;;;7.97;67.79
59417;BME280;45222;52.458;20.914;2023-03-14T06:33:16;98716.83;;;8.16;67.16
59417;BME280;45222;52.458;20.914;2023-03-14T06:37:01;98703.02;;;8.35;66.89
59417;BME280;45222;52.458;20.914;2023-03-14T06:40:48;98709.48;;;8.52;66.21
59417;BME280;45222;52.458;20.914;2023-03-14T06:44:34;98701.73;;;8.73;66.04
59417;BME280;45222;52.458;20.914;2023-03-14T06:48:19;98685.09;;;8.91;65.56
59417;BME280;45222;52.458;20.914;2023-03-14T06:52:04;98695.48;;;9.05;65.07
59417;BME280;45222;52.458;20.914;2023-03-14T06:55:50;98698.65;;;9.16;64.52
59417;BME280;45222;52.458;20.914;2023-03-14T06:59:35;98707.10;;;9.27;64.42
59417;BME280;45222;52.458;20.914;2023-03-14T07:03:20;98711.80;;;9.41;63.91
59417;BME280;45222;52.458;20.914;2023-03-14T07:07:06;98715.73;;;9.56;63.25
59417;BME280;45222;52.458;20.914;2023-03-14T07:10:51;98725.66;;;9.69;62.94
59417;BME280;45222;52.458;20.914;2023-03-14T07:14:36;98731.92;;;9.78;62.77
59417;BME280;45222;52.458;20.914;2023-03-14T07:18:22;98735.42;;;9.84;62.46
59417;BME280;45222;52.458;20.914;2023-03-14T07:22:07;98739.65;;;9.87;62.45
59417;BME280;45222;52.458;20.914;2023-03-14T07:25:54;98731.71;;;9.91;62.02
59417;BME280;45222;52.458;20.914;2023-03-14T07:29:39;98728.92;;;9.98;62.59
59417;BME280;45222;52.458;20.914;2023-03-14T07:33:24;98724.31;;;10.05;61.27
59417;BME280;45222;52.458;20.914;2023-03-14T07:37:10;98725.99;;;10.16;60.94
59417;BME280;45222;52.458;20.914;2023-03-14T07:40:59;98712.38;;;10.30;60.99
59417;BME280;45222;52.458;20.914;2023-03-14T07:44:47;98706.88;;;10.47;61.32
59417;BME280;45222;52.458;20.914;2023-03-14T07:48:33;98695.10;;;10.67;61.06
59417;BME280;45222;52.458;20.914;2023-03-14T07:52:18;98691.45;;;10.85;60.27
59417;BME280;45222;52.458;20.914;2023-03-14T07:56:04;98696.36;;;11.02;60.24
59417;BME280;45222;52.458;20.914;2023-03-14T07:59:49;98710.50;;;11.17;60.11
59417;BME280;45222;52.458;20.914;2023-03-14T08:03:34;98713.88;;;11.28;59.60
59417;BME280;45222;52.458;20.914;2023-03-14T08:07:20;98702.60;;;11.36;59.19
59417;BME280;45222;52.458;20.914;2023-03-14T08:11:07;98705.36;;;11.44;59.49
59417;BME280;45222;52.458;20.914;2023-03-14T08:14:53;98708.21;;;11.55;59.01
59417;BME280;45222;52.458;20.914;2023-03-14T08:18:38;98705.05;;;11.73;59.17
59417;BME280;45222;52.458;20.914;2023-03-14T08:22:24;98704.41;;;11.92;58.83
59417;BME280;45222;52.458;20.914;2023-03-14T08:26:09;98702.77;;;12.11;58.75
59417;BME280;45222;52.458;20.914;2023-03-14T08:29:54;98698.92;;;12.25;57.98
59417;BME280;45222;52.458;20.914;2023-03-14T08:33:40;98703.98;;;12.35;57.83
59417;BME280;45222;52.458;20.914;2023-03-14T08:37:25;98702.80;;;12.47;57.16
59417;BME280;45222;52.458;20.914;2023-03-14T08:41:12;98699.21;;;12.65;56.87
59417;BME280;45222;52.458;20.914;2023-03-14T08:44:57;98701.23;;;12.87;56.08
59417;BME280;45222;52.458;20.914;2023-03-14T08:48:42;98700.50;;;13.05;55.94
59417;BME280;45222;52.458;20.914;2023-03-14T08:52:28;98697.83;;;13.17;54.80
59417;BME280;45222;52.458;20.914;2023-03-14T08:56:15;98694.36;;;13.22;54.99
59417;BME280;45222;52.458;20.914;2023-03-14T09:00:00;98695.21;;;13.23;54.43
59417;BME280;45222;52.458;20.914;2023-03-14T09:03:46;98694.73;;;13.16;54.39
59417;BME280;45222;52.458;20.914;2023-03-14T09:07:32;98690.13;;;13.09;54.11
59417;BME280;45222;52.458;20.914;2023-03-14T09:11:17;98693.67;;;13.09;54.74
59417;BME280;45222;52.458;20.914;2023-03-14T09:15:04;98685.14;;;13.15;54.57
59417;BME280;45222;52.458;20.914;2023-03-14T09:18:49;98682.12;;;13.27;54.89
59417;BME280;45222;52.458;20.914;2023-03-14T09:22:37;98680.52;;;13.51;54.66
59417;BME280;45222;52.458;20.914;2023-03-14T09:26:22;98671.06;;;13.73;53.84
59417;BME280;45222;52.458;20.914;2023-03-14T09:30:10;98672.26;;;13.94;53.93
59417;BME280;45222;52.458;20.914;2023-03-14T09:33:55;98664.46;;;14.09;53.50
59417;BME280;45222;52.458;20.914;2023-03-14T09:37:41;98660.45;;;14.12;53.23
59417;BME280;45222;52.458;20.914;2023-03-14T09:41:28;98660.73;;;14.03;52.12
59417;BME280;45222;52.458;20.914;2023-03-14T09:45:25;98660.65;;;13.94;52.49
59417;BME280;45222;52.458;20.914;2023-03-14T09:49:13;98648.38;;;13.87;52.23
59417;BME280;45222;52.458;20.914;2023-03-14T09:53:04;98645.23;;;13.82;52.70
59417;BME280;45222;52.458;20.914;2023-03-14T09:56:52;98644.36;;;13.80;52.96
59417;BME280;45222;52.458;20.914;2023-03-14T10:00:37;98642.22;;;13.80;52.58
59417;BME280;45222;52.458;20.914;2023-03-14T10:04:23;98638.45;;;13.82;52.78
59417;BME280;45222;52.458;20.914;2023-03-14T10:08:10;98631.21;;;13.87;52.75
59417;BME280;45222;52.458;20.914;2023-03-14T10:11:57;98624.65;;;13.89;52.11
59417;BME280;45222;52.458;20.914;2023-03-14T10:15:48;98624.80;;;13.85;51.71
59417;BME280;45222;52.458;20.914;2023-03-14T10:19:36;98609.94;;;13.77;51.50
59417;BME280;45222;52.458;20.914;2023-03-14T10:23:26;98625.90;;;13.69;51.45
59417;BME280;45222;52.458;20.914;2023-03-14T10:27:20;98619.41;;;13.73;52.11
59417;BME280;45222;52.458;20.914;2023-03-14T10:31:06;98619.79;;;13.91;52.51
59417;BME280;45222;52.458;20.914;2023-03-14T10:39:25;98620.04;;;14.18;51.57
59417;BME280;45222;52.458;20.914;2023-03-14T10:43:15;98614.56;;;14.25;51.20
59417;BME280;45222;52.458;20.914;2023-03-14T10:47:03;98616.15;;;14.31;51.16
59417;BME280;45222;52.458;20.914;2023-03-14T10:50:53;98610.04;;;14.49;51.03
59417;BME280;45222;52.458;20.914;2023-03-14T10:54:39;98600.52;;;14.80;51.24
59417;BME280;45222;52.458;20.914;2023-03-14T10:58:26;98600.06;;;15.02;50.06
59417;BME280;45222;52.458;20.914;2023-03-14T11:02:31;98592.97;;;15.09;49.72
59417;BME280;45222;52.458;20.914;2023-03-14T11:06:22;98586.27;;;15.12;49.50
59417;BME280;45222;52.458;20.914;2023-03-14T11:10:18;98593.96;;;15.06;49.52
59417;BME280;45222;52.458;20.914;2023-03-14T11:14:12;98589.88;;;14.95;49.99
59417;BME280;45222;52.458;20.914;2023-03-14T11:22:40;98585.17;;;14.99;50.20
59417;BME280;45222;52.458;20.914;2023-03-14T11:26:34;98597.77;;;14.89;50.39
59417;BME280;45222;52.458;20.914;2023-03-14T11:30:25;98612.48;;;14.83;50.87
59417;BME280;45222;52.458;20.914;2023-03-14T11:34:17;98616.38;;;14.73;50.79
59417;BME280;45222;52.458;20.914;2023-03-14T11:38:15;98617.36;;;14.63;50.99
59417;BME280;45222;52.458;20.914;2023-03-14T11:42:03;98617.27;;;14.56;51.16
59417;BME280;45222;52.458;20.914;2023-03-14T11:45:50;98608.89;;;14.61;51.52
59417;BME280;45222;52.458;20.914;2023-03-14T11:49:40;98594.54;;;14.73;51.80
59417;BME280;45222;52.458;20.914;2023-03-14T11:53:36;98590.42;;;14.75;51.48
59417;BME280;45222;52.458;20.914;2023-03-14T11:57:24;98596.67;;;14.78;51.62
59417;BME280;45222;52.458;20.914;2023-03-14T12:01:11;98604.07;;;14.73;51.39
59417;BME280;45222;52.458;20.914;2023-03-14T12:09:22;98616.89;;;14.31;51.94
59417;BME280;45222;52.458;20.914;2023-03-14T12:13:09;98618.05;;;14.12;52.44
59417;BME280;45222;52.458;20.914;2023-03-14T12:16:58;98613.12;;;13.98;53.00
59417;BME280;45222;52.458;20.914;2023-03-14T12:20:52;98604.70;;;13.86;53.30
59417;BME280;45222;52.458;20.914;2023-03-14T12:24:41;98601.38;;;13.73;53.41
59417;BME280;45222;52.458;20.914;2023-03-14T12:28:31;98597.81;;;13.59;53.79
59417;BME280;45222;52.458;20.914;2023-03-14T12:32:24;98611.95;;;13.48;54.28
59417;BME280;45222;52.458;20.914;2023-03-14T12:40:34;98634.46;;;13.28;54.94
59417;BME280;45222;52.458;20.914;2023-03-14T12:44:42;98621.95;;;13.13;55.33
59417;BME280;45222;52.458;20.914;2023-03-14T12:48:28;98630.36;;;12.96;56.57
59417;BME280;45222;52.458;20.914;2023-03-14T12:52:15;98638.25;;;12.81;57.69
59417;BME280;45222;52.458;20.914;2023-03-14T12:56:09;98646.46;;;12.62;59.16
59417;BME280;45222;52.458;20.914;2023-03-14T12:59:57;98665.03;;;12.38;61.07
59417;BME280;45222;52.458;20.914;2023-03-14T13:03:46;98672.08;;;12.13;62.30
59417;BME280;45222;52.458;20.914;2023-03-14T13:07:35;98677.61;;;11.87;64.05
59417;BME280;45222;52.458;20.914;2023-03-14T13:11:21;98673.39;;;11.63;65.32
59417;BME280;45222;52.458;20.914;2023-03-14T13:15:21;98672.48;;;11.45;66.13
59417;BME280;45222;52.458;20.914;2023-03-14T13:19:13;98671.34;;;11.31;67.80
59417;BME280;45222;52.458;20.914;2023-03-14T13:23:02;98672.08;;;11.19;68.48
59417;BME280;45222;52.458;20.914;2023-03-14T13:26:47;98668.34;;;11.12;69.00
59417;BME280;45222;52.458;20.914;2023-03-14T13:30:40;98666.52;;;11.11;69.71
59417;BME280;45222;52.458;20.914;2023-03-14T13:34:27;98666.00;;;11.10;71.32
59417;BME280;45222;52.458;20.914;2023-03-14T13:38:23;98673.23;;;11.09;71.52
59417;BME280;45222;52.458;20.914;2023-03-14T13:42:17;98678.90;;;11.04;71.98
59417;BME280;45222;52.458;20.914;2023-03-14T13:46:05;98677.10;;;10.95;72.60
59417;BME280;45222;52.458;20.914;2023-03-14T13:49:51;98672.77;;;10.87;72.55
59417;BME280;45222;52.458;20.914;2023-03-14T13:53:44;98669.63;;;10.79;73.34
59417;BME280;45222;52.458;20.914;2023-03-14T13:57:43;98663.31;;;10.73;74.49
59417;BME280;45222;52.458;20.914;2023-03-14T14:01:31;98655.63;;;10.71;74.23
59417;BME280;45222;52.458;20.914;2023-03-14T14:05:17;98652.65;;;10.73;74.57
59417;BME280;45222;52.458;20.914;2023-03-14T14:09:09;98646.73;;;10.69;75.19
59417;BME280;45222;52.458;20.914;2023-03-14T14:12:59;98638.02;;;10.65;75.16
59417;BME280;45222;52.458;20.914;2023-03-14T14:16:47;98635.20;;;10.62;75.28
59417;BME280;45222;52.458;20.914;2023-03-14T14:20:37;98639.84;;;10.59;76.02
59417;BME280;45222;52.458;20.914;2023-03-14T14:24:30;98640.20;;;10.59;76.56
59417;BME280;45222;52.458;20.914;2023-03-14T14:28:21;98638.39;;;10.57;76.82
59417;BME280;45222;52.458;20.914;2023-03-14T14:32:15;98630.05;;;10.57;77.20
59417;BME280;45222;52.458;20.914;2023-03-14T14:36:01;98616.15;;;10.53;77.19
59417;BME280;45222;52.458;20.914;2023-03-14T14:39:46;98608.38;;;10.50;77.41
59417;BME280;45222;52.458;20.914;2023-03-14T14:43:35;98620.19;;;10.49;77.94
59417;BME280;45222;52.458;20.914;2023-03-14T14:47:25;98630.46;;;10.52;78.28
59417;BME280;45222;52.458;20.914;2023-03-14T14:51:11;98652.66;;;10.45;78.31
59417;BME280;45222;52.458;20.914;2023-03-14T14:55:16;98653.61;;;10.27;78.70
59417;BME280;45222;52.458;20.914;2023-03-14T14:59:02;98646.60;;;10.11;78.91
59417;BME280;45222;52.458;20.914;2023-03-14T15:02:51;98628.24;;;10.07;79.15
59417;BME280;45222;52.458;20.914;2023-03-14T15:06:37;98617.11;;;10.09;79.34
59417;BME280;45222;52.458;20.914;2023-03-14T15:10:23;98629.40;;;10.13;79.76
59417;BME280;45222;52.458;20.914;2023-03-14T15:14:09;98633.22;;;10.15;79.59
59417;BME280;45222;52.458;20.914;2023-03-14T15:17:55;98634.25;;;10.13;79.75
59417;BME280;45222;52.458;20.914;2023-03-14T15:21:40;98627.61;;;10.06;79.45
59417;BME280;45222;52.458;20.914;2023-03-14T15:25:25;98629.13;;;10.03;79.79
59417;BME280;45222;52.458;20.914;2023-03-14T15:29:11;98630.56;;;10.00;80.07
59417;BME280;45222;52.458;20.914;2023-03-14T15:32:57;98638.89;;;9.98;80.45
59417;BME280;45222;52.458;20.914;2023-03-14T15:36:42;98651.21;;;9.95;80.47
59417;BME280;45222;52.458;20.914;2023-03-14T15:40:27;98655.53;;;9.89;80.34
59417;BME280;45222;52.458;20.914;2023-03-14T15:44:13;98639.91;;;9.84;80.32
59417;BME280;45222;52.458;20.914;2023-03-14T15:47:58;98621.69;;;9.80;80.38
59417;BME280;45222;52.458;20.914;2023-03-14T15:51:44;98629.02;;;9.78;80.95
59417;BME280;45222;52.458;20.914;2023-03-14T15:55:30;98636.36;;;9.77;81.31
59417;BME280;45222;52.458;20.914;2023-03-14T15:59:16;98642.66;;;9.75;81.19
59417;BME280;45222;52.458;20.914;2023-03-14T16:03:01;98649.64;;;9.72;81.10
59417;BME280;45222;52.458;20.914;2023-03-14T16:06:47;98660.31;;;9.67;80.73
59417;BME280;45222;52.458;20.914;2023-03-14T16:10:33;98666.64;;;9.63;81.16
59417;BME280;45222;52.458;20.914;2023-03-14T16:14:19;98679.25;;;9.60;81.37
59417;BME280;45222;52.458;20.914;2023-03-14T16:18:04;98682.52;;;9.59;81.36
59417;BME280;45222;52.458;20.914;2023-03-14T16:21:49;98671.48;;;9.57;81.49
59417;BME280;45222;52.458;20.914;2023-03-14T16:25:34;98667.58;;;9.52;81.43
59417;BME280;45222;52.458;20.914;2023-03-14T16:29:20;98663.16;;;9.47;81.22
59417;BME280;45222;52.458;20.914;2023-03-14T16:33:05;98664.29;;;9.44;81.42
59417;BME280;45222;52.458;20.914;2023-03-14T16:36:53;98662.71;;;9.40;81.64
59417;BME280;45222;52.458;20.914;2023-03-14T16:40:39;98671.01;;;9.41;81.69
59417;BME280;45222;52.458;20.914;2023-03-14T16:44:24;98687.61;;;9.40;81.68
59417;BME280;45222;52.458;20.914;2023-03-14T16:48:10;98691.95;;;9.33;81.36
59417;BME280;45222;52.458;20.914;2023-03-14T16:51:55;98687.58;;;9.27;81.31
59417;BME280;45222;52.458;20.914;2023-03-14T16:55:44;98680.41;;;9.23;81.60
59417;BME280;45222;52.458;20.914;2023-03-14T16:59:29;98686.48;;;9.23;81.64
59417;BME280;45222;52.458;20.914;2023-03-14T17:03:16;98699.47;;;9.22;81.94
59417;BME280;45222;52.458;20.914;2023-03-14T17:07:01;98703.63;;;9.21;81.53
59417;BME280;45222;52.458;20.914;2023-03-14T17:10:47;98699.42;;;9.18;81.45
59417;BME280;45222;52.458;20.914;2023-03-14T17:14:32;98695.37;;;9.12;81.29
59417;BME280;45222;52.458;20.914;2023-03-14T17:18:18;98692.02;;;9.09;81.35
59417;BME280;45222;52.458;20.914;2023-03-14T17:22:04;98694.15;;;9.07;81.53
59417;BME280;45222;52.458;20.914;2023-03-14T17:25:50;98694.99;;;9.05;81.53
59417;BME280;45222;52.458;20.914;2023-03-14T17:29:36;98701.34;;;9.00;81.40
59417;BME280;45222;52.458;20.914;2023-03-14T17:33:21;98704.36;;;8.95;81.50
59417;BME280;45222;52.458;20.914;2023-03-14T17:37:07;98711.91;;;8.91;81.45
59417;BME280;45222;52.458;20.914;2023-03-14T17:40:53;98717.36;;;8.89;81.57
59417;BME280;45222;52.458;20.914;2023-03-14T17:44:38;98719.64;;;8.89;81.81
59417;BME280;45222;52.458;20.914;2023-03-14T17:48:24;98716.86;;;8.91;81.94
59417;BME280;45222;52.458;20.914;2023-03-14T17:52:09;98715.36;;;8.92;81.84
59417;BME280;45222;52.458;20.914;2023-03-14T17:55:56;98715.89;;;8.92;81.90
59417;BME280;45222;52.458;20.914;2023-03-14T17:59:42;98716.14;;;8.91;81.61
59417;BME280;45222;52.458;20.914;2023-03-14T18:03:27;98714.19;;;8.94;81.79
59417;BME280;45222;52.458;20.914;2023-03-14T18:07:12;98709.34;;;8.97;81.98
59417;BME280;45222;52.458;20.914;2023-03-14T18:10:58;98710.11;;;9.04;82.11
59417;BME280;45222;52.458;20.914;2023-03-14T18:14:44;98708.11;;;9.10;81.73
59417;BME280;45222;52.458;20.914;2023-03-14T18:18:29;98704.41;;;9.12;81.45
59417;BME280;45222;52.458;20.914;2023-03-14T18:22:15;98714.58;;;9.11;80.88
59417;BME280;45222;52.458;20.914;2023-03-14T18:26:01;98726.16;;;9.10;80.96
59417;BME280;45222;52.458;20.914;2023-03-14T18:29:47;98729.27;;;9.12;81.26
59417;BME280;45222;52.458;20.914;2023-03-14T18:33:32;98723.52;;;9.13;81.00
59417;BME280;45222;52.458;20.914;2023-03-14T18:37:21;98717.45;;;9.13;80.75
59417;BME280;45222;52.458;20.914;2023-03-14T18:41:07;98712.28;;;9.11;80.47
59417;BME280;45222;52.458;20.914;2023-03-14T18:44:52;98719.17;;;9.09;80.31
59417;BME280;45222;52.458;20.914;2023-03-14T18:48:38;98724.73;;;9.06;80.42
59417;BME280;45222;52.458;20.914;2023-03-14T18:52:26;98727.77;;;9.03;80.40
59417;BME280;45222;52.458;20.914;2023-03-14T18:56:12;98730.69;;;8.99;80.17
59417;BME280;45222;52.458;20.914;2023-03-14T18:59:57;98733.05;;;8.93;80.02
59417;BME280;45222;52.458;20.914;2023-03-14T19:03:43;98734.81;;;8.88;79.80
59417;BME280;45222;52.458;20.914;2023-03-14T19:07:30;98737.38;;;8.81;79.87
59417;BME280;45222;52.458;20.914;2023-03-14T19:11:17;98745.53;;;8.78;79.99
59417;BME280;45222;52.458;20.914;2023-03-14T19:15:03;98744.08;;;8.76;80.16
59417;BME280;45222;52.458;20.914;2023-03-14T19:18:49;98744.23;;;8.74;79.80
59417;BME280;45222;52.458;20.914;2023-03-14T19:22:36;98745.05;;;8.70;79.89
59417;BME280;45222;52.458;20.914;2023-03-14T19:26:21;98748.38;;;8.65;79.79
59417;BME280;45222;52.458;20.914;2023-03-14T19:30:09;98749.36;;;8.64;79.76
59417;BME280;45222;52.458;20.914;2023-03-14T19:33:55;98742.11;;;8.64;79.93
59417;BME280;45222;52.458;20.914;2023-03-14T19:37:40;98745.95;;;8.64;80.02
59417;BME280;45222;52.458;20.914;2023-03-14T19:41:25;98745.02;;;8.65;79.60
59417;BME280;45222;52.458;20.914;2023-03-14T19:45:11;98745.64;;;8.64;79.48
59417;BME280;45222;52.458;20.914;2023-03-14T19:48:57;98747.64;;;8.63;79.69
59417;BME280;45222;52.458;20.914;2023-03-14T19:52:43;98739.11;;;8.60;79.97
59417;BME280;45222;52.458;20.914;2023-03-14T19:56:31;98741.98;;;8.60;79.94
59417;BME280;45222;52.458;20.914;2023-03-14T20:00:18;98742.14;;;8.57;79.85
59417;BME280;45222;52.458;20.914;2023-03-14T20:04:04;98739.86;;;8.57;79.96
59417;BME280;45222;52.458;20.914;2023-03-14T20:07:50;98743.44;;;8.54;79.87
59417;BME280;45222;52.458;20.914;2023-03-14T20:11:35;98741.08;;;8.52;79.82